createdAt,value
2022-10-16T00:01:23.937Z,146443.94
2022-10-16T00:03:51.737Z,146443.94
2022-10-16T00:06:21.609Z,146443.94
2022-10-16T00:08:50.055Z,146424.47
2022-10-16T00:11:23.776Z,146422.00
2022-10-16T00:13:52.994Z,146423.22
2022-10-16T00:16:20.431Z,146431.75
2022-10-16T00:18:47.707Z,146363.50
2022-10-16T00:21:18.883Z,146430.53
2022-10-16T00:23:46.180Z,146429.34
2022-10-16T00:26:16.167Z,146417.13
2022-10-16T00:28:43.703Z,146420.81
2022-10-16T00:31:12.310Z,146376.91
2022-10-16T00:33:40.817Z,146409.88
2022-10-16T00:36:10.621Z,146407.34
2022-10-16T00:38:38.788Z,146406.16
2022-10-16T00:41:08.515Z,146400.03
2022-10-16T00:43:45.254Z,146376.91
2022-10-16T00:46:36.164Z,146386.63
2022-10-16T00:49:21.790Z,146275.84
2022-10-16T00:51:52.114Z,146375.69
2022-10-16T00:54:24.059Z,146370.84
2022-10-16T00:56:51.561Z,146380.56
2022-10-16T00:59:23.706Z,146370.84
2022-10-16T01:01:50.705Z,146342.84
2022-10-16T01:04:18.545Z,146333.09
2022-10-16T01:07:04.286Z,146344.03
2022-10-16T01:09:38.791Z,146306.31
2022-10-16T01:12:38.692Z,146281.97
2022-10-16T01:15:30.443Z,146308.72
2022-10-16T01:18:08.775Z,146302.66
2022-10-16T01:20:44.086Z,146301.44
2022-10-16T01:23:26.657Z,146290.47
2022-10-16T01:26:16.478Z,146298.97
2022-10-16T01:28:55.540Z,146325.78
2022-10-16T01:31:26.860Z,146344.03
2022-10-16T01:34:23.312Z,146344.03
2022-10-16T01:36:56.656Z,146359.88
2022-10-16T01:39:27.689Z,146280.72
2022-10-16T01:42:05.107Z,146286.84
2022-10-16T01:44:34.874Z,146373.28
2022-10-16T01:47:02.123Z,146365.97
2022-10-16T01:49:34.099Z,146353.78
2022-10-16T01:52:06.563Z,146336.75
2022-10-16T01:54:37.517Z,146336.75
2022-10-16T01:57:08.637Z,146335.50
2022-10-16T01:59:46.977Z,146348.91
2022-10-16T02:02:18.046Z,146340.38
2022-10-16T02:04:50.513Z,146341.63
2022-10-16T02:07:17.722Z,146337.97
2022-10-16T02:09:44.930Z,146324.56
2022-10-16T02:12:26.396Z,146311.19
2022-10-16T02:14:54.366Z,146290.47
2022-10-16T02:17:21.832Z,146280.72
2022-10-16T02:19:52.173Z,146244.22
2022-10-16T02:22:39.139Z,146244.22
2022-10-16T02:25:06.211Z,146228.41
2022-10-16T02:27:46.825Z,146205.28
2022-10-16T02:30:25.971Z,146205.28
2022-10-16T02:32:54.514Z,146195.56
2022-10-16T02:35:24.286Z,146189.44
2022-10-16T02:37:51.805Z,146168.78
2022-10-16T02:40:22.860Z,146179.72
2022-10-16T02:42:54.911Z,146166.31
2022-10-16T02:45:22.879Z,146161.47
2022-10-16T02:47:50.353Z,146086.06
2022-10-16T02:50:17.618Z,146188.25
2022-10-16T02:52:44.686Z,146200.44
2022-10-16T02:55:11.716Z,146207.69
2022-10-16T02:57:41.103Z,146200.44
2022-10-16T03:00:10.799Z,146206.50
2022-10-16T03:02:37.877Z,146196.75
2022-10-16T03:05:05.442Z,146165.13
2022-10-16T03:07:32.425Z,146139.56
2022-10-16T03:10:01.185Z,146163.91
2022-10-16T03:12:29.110Z,146049.50
2022-10-16T03:14:57.590Z,146159.06
2022-10-16T03:17:25.744Z,146156.59
2022-10-16T03:19:53.238Z,146156.59
2022-10-16T03:22:20.328Z,146155.41
2022-10-16T03:24:47.441Z,146162.66
2022-10-16T03:27:14.469Z,146161.47
2022-10-16T03:29:41.699Z,146166.31
2022-10-16T03:32:08.804Z,146144.41
2022-10-16T03:34:35.830Z,146165.13
2022-10-16T03:37:02.828Z,146122.56
2022-10-16T03:39:29.844Z,146190.69
2022-10-16T03:41:56.797Z,146183.38
2022-10-16T03:44:23.864Z,146168.78
2022-10-16T03:46:50.857Z,146166.31
2022-10-16T03:49:17.914Z,146193.09
2022-10-16T03:51:45.141Z,146183.38
2022-10-16T03:54:12.183Z,146093.31
2022-10-16T03:56:39.419Z,146200.44
2022-10-16T03:59:06.525Z,146146.88
2022-10-16T04:01:33.524Z,146154.19
2022-10-16T04:04:00.587Z,146195.56
2022-10-16T04:06:27.580Z,146197.97
2022-10-16T04:08:54.660Z,146188.25
2022-10-16T04:11:21.688Z,146197.97
2022-10-16T04:13:48.986Z,146193.09
2022-10-16T04:16:15.977Z,146180.91
2022-10-16T04:18:42.970Z,146183.38
2022-10-16T04:21:09.977Z,146187.03
2022-10-16T04:23:37.135Z,146163.91
2022-10-16T04:26:04.484Z,146163.91
2022-10-16T04:28:31.495Z,146180.91
2022-10-16T04:30:58.718Z,146195.56
2022-10-16T04:33:25.738Z,146149.28
2022-10-16T04:36:00.326Z,146223.53
2022-10-16T04:38:27.491Z,146188.25
2022-10-16T04:40:54.566Z,146256.41
2022-10-16T04:43:22.443Z,146271.00
2022-10-16T04:45:51.503Z,146285.59
2022-10-16T04:48:19.244Z,146227.22
2022-10-16T04:50:49.296Z,146302.66
2022-10-16T04:53:18.704Z,146311.19
2022-10-16T04:55:45.723Z,146331.84
2022-10-16T04:58:13.179Z,146320.91
2022-10-16T05:00:40.259Z,146325.78
2022-10-16T05:03:09.587Z,146316.03
2022-10-16T05:05:37.261Z,146329.44
2022-10-16T05:08:04.931Z,146352.56
2022-10-16T05:10:32.005Z,146358.63
2022-10-16T05:12:59.193Z,146368.38
2022-10-16T05:15:26.454Z,146364.75
2022-10-16T05:17:54.927Z,146363.50
2022-10-16T05:20:22.812Z,146369.63
2022-10-16T05:22:49.995Z,146308.72
2022-10-16T05:25:17.156Z,146356.22
2022-10-16T05:27:44.283Z,146358.63
2022-10-16T05:30:12.473Z,146372.03
2022-10-16T05:32:39.753Z,146311.19
2022-10-16T05:35:10.089Z,146369.63
2022-10-16T05:37:39.611Z,146381.78
2022-10-16T05:40:07.210Z,146379.34
2022-10-16T05:42:34.167Z,146378.16
2022-10-16T05:45:01.586Z,146380.56
2022-10-16T05:47:28.854Z,146389.09
2022-10-16T05:49:56.793Z,146379.34
2022-10-16T05:52:23.757Z,146372.03
2022-10-16T05:54:50.883Z,146373.28
2022-10-16T05:57:17.858Z,146393.97
2022-10-16T05:59:44.859Z,146411.06
2022-10-16T06:02:14.397Z,146409.88
2022-10-16T06:04:41.444Z,146423.22
2022-10-16T06:07:08.848Z,146429.34
2022-10-16T06:09:35.843Z,146434.19
2022-10-16T06:12:03.003Z,146461.00
2022-10-16T06:14:30.066Z,146470.75
2022-10-16T06:16:57.019Z,146490.22
2022-10-16T06:19:24.243Z,146463.41
2022-10-16T06:21:51.314Z,146540.16
2022-10-16T06:24:18.370Z,146541.38
2022-10-16T06:26:45.365Z,146549.91
2022-10-16T06:29:12.379Z,146563.31
2022-10-16T06:31:39.384Z,146585.22
2022-10-16T06:34:10.229Z,146629.13
2022-10-16T06:36:37.611Z,146575.50
2022-10-16T06:39:06.226Z,146636.41
2022-10-16T06:41:33.282Z,146640.06
2022-10-16T06:44:09.954Z,146643.72
2022-10-16T06:46:37.031Z,146660.75
2022-10-16T06:49:04.185Z,146692.44
2022-10-16T06:51:32.961Z,146664.41
2022-10-16T06:54:04.405Z,146692.44
2022-10-16T06:56:32.809Z,146675.41
2022-10-16T06:59:00.760Z,146682.69
2022-10-16T07:01:28.405Z,146683.94
2022-10-16T07:03:55.489Z,146668.09
2022-10-16T07:06:24.704Z,146680.28
2022-10-16T07:08:52.168Z,146668.09
2022-10-16T07:11:22.149Z,146660.75
2022-10-16T07:13:54.374Z,146642.47
2022-10-16T07:16:26.479Z,146668.09
2022-10-16T07:18:59.363Z,146686.38
2022-10-16T07:21:29.674Z,146714.44
2022-10-16T07:24:00.114Z,146741.25
2022-10-16T07:26:28.634Z,146753.47
2022-10-16T07:28:55.888Z,146765.63
2022-10-16T07:31:23.726Z,146720.56
2022-10-16T07:33:52.364Z,146790.03
2022-10-16T07:36:21.045Z,146797.31
2022-10-16T07:38:48.708Z,146777.81
2022-10-16T07:41:19.323Z,146809.53
2022-10-16T07:43:51.594Z,146815.59
2022-10-16T07:46:20.583Z,146802.19
2022-10-16T07:48:48.118Z,146836.34
2022-10-16T07:51:19.704Z,146857.06
2022-10-16T07:53:47.709Z,146885.13
2022-10-16T07:56:16.099Z,146855.84
2022-10-16T07:58:43.186Z,146840.00
2022-10-16T08:01:12.698Z,146875.34
2022-10-16T08:03:42.861Z,146974.13
2022-10-16T08:06:10.023Z,147004.69
2022-10-16T08:08:36.989Z,146958.28
2022-10-16T08:11:04.922Z,146988.81
2022-10-16T08:13:32.438Z,147011.97
2022-10-16T08:15:59.475Z,146980.22
2022-10-16T08:18:26.597Z,146994.94
2022-10-16T08:21:01.199Z,147015.66
2022-10-16T08:23:29.489Z,147051.03
2022-10-16T08:26:02.226Z,147014.44
2022-10-16T08:28:29.231Z,147068.06
2022-10-16T08:30:57.806Z,147108.34
2022-10-16T08:33:24.831Z,147114.47
2022-10-16T08:35:54.438Z,147142.53
2022-10-16T08:38:21.970Z,147109.59
2022-10-16T08:40:52.714Z,147165.72
2022-10-16T08:43:35.551Z,147165.72
2022-10-16T08:46:44.789Z,147160.84
2022-10-16T08:49:15.698Z,147238.94
2022-10-16T08:51:44.370Z,147256.06
2022-10-16T08:54:52.963Z,147306.09
2022-10-16T08:57:24.216Z,147309.75
2022-10-16T08:59:52.874Z,147292.69
2022-10-16T09:02:33.611Z,147168.13
2022-10-16T09:05:12.338Z,147204.72
2022-10-16T09:08:12.442Z,147163.25
2022-10-16T09:10:56.147Z,147142.53
2022-10-16T09:13:42.034Z,147204.72
2022-10-16T09:16:33.593Z,147206.00
2022-10-16T09:19:19.258Z,147216.97
2022-10-16T09:21:48.125Z,147251.16
2022-10-16T09:24:15.049Z,147302.47
2022-10-16T09:26:42.426Z,147331.72
2022-10-16T09:29:22.535Z,147406.19
2022-10-16T09:31:49.557Z,147384.25
2022-10-16T09:34:32.942Z,147400.09
2022-10-16T09:37:03.948Z,147395.22
2022-10-16T09:39:31.016Z,147380.59
2022-10-16T09:41:58.096Z,147319.50
2022-10-16T09:44:30.592Z,147361.03
2022-10-16T09:47:06.271Z,147335.41
2022-10-16T09:49:33.295Z,147271.94
2022-10-16T09:52:12.435Z,147248.75
2022-10-16T09:54:50.277Z,147212.06
2022-10-16T09:57:17.335Z,147252.41
2022-10-16T09:59:49.406Z,147235.25
2022-10-16T10:02:19.157Z,147212.06
2022-10-16T10:04:52.430Z,147155.97
2022-10-16T10:07:25.302Z,147190.09
2022-10-16T10:09:53.742Z,147313.44
2022-10-16T10:12:26.913Z,147307.34
2022-10-16T10:14:58.971Z,147375.72
2022-10-16T10:17:28.013Z,147356.13
2022-10-16T10:20:35.383Z,147409.88
2022-10-16T10:23:21.837Z,147414.75
2022-10-16T10:26:12.802Z,147563.81
2022-10-16T10:29:03.681Z,147627.34
2022-10-16T10:32:07.494Z,147654.19
2022-10-16T10:34:56.560Z,147706.75
2022-10-16T10:37:47.650Z,147764.22
2022-10-16T10:40:40.705Z,147873.00
2022-10-16T10:43:10.599Z,147906.00
2022-10-16T10:45:47.346Z,147913.38
2022-10-16T10:48:40.931Z,147881.56
2022-10-16T10:51:23.883Z,147701.88
2022-10-16T10:54:20.815Z,147786.22
2022-10-16T10:57:07.246Z,147818.00
2022-10-16T11:00:02.064Z,147835.13
2022-10-16T11:02:41.426Z,147725.13
2022-10-16T11:05:26.966Z,147759.31
2022-10-16T11:08:00.999Z,147712.84
2022-10-16T11:10:35.635Z,147788.69
2022-10-16T11:13:11.625Z,147786.22
2022-10-16T11:15:42.413Z,147791.09
2022-10-16T11:18:24.527Z,147824.16
2022-10-16T11:20:57.049Z,147698.19
2022-10-16T11:23:39.441Z,147862.03
2022-10-16T11:26:15.295Z,147732.47
2022-10-16T11:29:05.688Z,147810.69
2022-10-16T11:31:48.202Z,147876.69
2022-10-16T11:34:27.050Z,147849.78
2022-10-16T11:37:12.040Z,147837.53
2022-10-16T11:39:40.338Z,147721.44
2022-10-16T11:42:38.202Z,147551.59
2022-10-16T11:45:24.084Z,147678.66
2022-10-16T11:48:24.104Z,147613.91
2022-10-16T11:50:55.121Z,147634.66
2022-10-16T11:53:45.896Z,147678.66
2022-10-16T11:56:19.845Z,147661.53
2022-10-16T11:58:57.331Z,147778.91
2022-10-16T12:01:41.962Z,147737.38
2022-10-16T12:04:35.454Z,147788.69
2022-10-16T12:07:08.104Z,147771.56
2022-10-16T12:09:39.543Z,147818.00
2022-10-16T12:12:25.627Z,147857.16
2022-10-16T12:15:25.726Z,147888.94
2022-10-16T12:17:57.960Z,147876.69
2022-10-16T12:20:31.887Z,147957.44
2022-10-16T12:23:05.092Z,147907.28
2022-10-16T12:25:36.517Z,147914.56
2022-10-16T12:28:18.673Z,147813.13
2022-10-16T12:30:55.420Z,147881.56
2022-10-16T12:33:26.122Z,147888.94
2022-10-16T12:35:54.895Z,147869.34
2022-10-16T12:38:27.557Z,147930.50
2022-10-16T12:41:01.490Z,147984.31
2022-10-16T12:43:39.179Z,147913.38
2022-10-16T12:46:10.250Z,147991.66
2022-10-16T12:48:48.973Z,148011.22
2022-10-16T12:51:29.127Z,147957.44
2022-10-16T12:54:32.871Z,147940.31
2022-10-16T12:57:18.328Z,147937.84
2022-10-16T13:00:13.214Z,147884.03
2022-10-16T13:02:53.060Z,147871.81
2022-10-16T13:05:44.815Z,147890.13
2022-10-16T13:08:36.377Z,147954.97
2022-10-16T13:11:23.085Z,147978.22
2022-10-16T13:14:26.479Z,147994.13
2022-10-16T13:17:12.689Z,147920.72
2022-10-16T13:20:00.419Z,147940.31
2022-10-16T13:22:55.151Z,147918.25
2022-10-16T13:25:47.423Z,147954.97
2022-10-16T13:28:14.770Z,147964.75
2022-10-16T13:30:53.258Z,147924.34
2022-10-16T13:33:38.323Z,147968.44
2022-10-16T13:36:06.570Z,148019.78
2022-10-16T13:38:35.892Z,147939.09
2022-10-16T13:41:06.110Z,148002.66
2022-10-16T13:43:37.720Z,148001.44
2022-10-16T13:46:06.980Z,148001.44
2022-10-16T13:48:35.493Z,147862.03
2022-10-16T13:51:06.918Z,148054.06
2022-10-16T13:53:36.581Z,147983.09
2022-10-16T13:56:11.783Z,147936.63
2022-10-16T13:58:38.812Z,147895.03
2022-10-16T14:01:17.720Z,147913.38
2022-10-16T14:03:45.877Z,147864.44
2022-10-16T14:06:18.710Z,147841.22
2022-10-16T14:08:49.895Z,147841.22
2022-10-16T14:11:25.587Z,147815.59
2022-10-16T14:13:53.834Z,147813.13
2022-10-16T14:16:27.814Z,147725.13
2022-10-16T14:19:07.692Z,147752.03
2022-10-16T14:21:35.381Z,147737.38
2022-10-16T14:24:12.591Z,147793.56
2022-10-16T14:26:50.684Z,147752.03
2022-10-16T14:29:21.916Z,147874.22
2022-10-16T14:32:06.418Z,147896.25
2022-10-16T14:34:35.982Z,147891.34
2022-10-16T14:37:28.201Z,147942.75
2022-10-16T14:39:57.185Z,147877.91
2022-10-16T14:42:26.449Z,147793.56
2022-10-16T14:44:56.438Z,147764.22
2022-10-16T14:47:27.652Z,147678.66
2022-10-16T14:49:56.842Z,147678.66
2022-10-16T14:52:23.986Z,147704.28
2022-10-16T14:54:51.596Z,147783.81
2022-10-16T14:57:29.227Z,147815.59
2022-10-16T14:59:57.429Z,147753.22
2022-10-16T15:02:35.827Z,147752.03
2022-10-16T15:05:29.172Z,147758.13
2022-10-16T15:07:56.337Z,147774.03
2022-10-16T15:10:26.755Z,147611.44
2022-10-16T15:12:54.116Z,147748.34
2022-10-16T15:15:24.332Z,147725.13
2022-10-16T15:17:57.289Z,147701.88
2022-10-16T15:20:25.790Z,147703.06
2022-10-16T15:22:54.127Z,147704.28
2022-10-16T15:25:32.899Z,147689.63
2022-10-16T15:28:01.045Z,147682.34
2022-10-16T15:30:28.580Z,147664.00
2022-10-16T15:32:55.656Z,147664.00
2022-10-16T15:35:22.765Z,147615.13
2022-10-16T15:37:50.147Z,147633.44
2022-10-16T15:40:19.385Z,147611.44
2022-10-16T15:42:46.932Z,147571.13
2022-10-16T15:45:14.672Z,147529.59
2022-10-16T15:47:45.103Z,147580.88
2022-10-16T15:50:15.887Z,147533.25
2022-10-16T15:52:43.200Z,147567.50
2022-10-16T15:55:12.258Z,147480.72
2022-10-16T15:57:41.569Z,147529.59
2022-10-16T16:00:13.861Z,147514.94
2022-10-16T16:02:42.526Z,147502.72
2022-10-16T16:05:10.821Z,147491.75
2022-10-16T16:07:39.554Z,147483.13
2022-10-16T16:10:09.218Z,147470.91
2022-10-16T16:12:36.527Z,147473.38
2022-10-16T16:15:07.802Z,147437.94
2022-10-16T16:17:36.385Z,147419.63
2022-10-16T16:20:05.551Z,147419.63
2022-10-16T16:22:32.755Z,147419.63
2022-10-16T16:24:59.714Z,147409.88
2022-10-16T16:27:27.356Z,147356.13
2022-10-16T16:29:56.099Z,147248.75
2022-10-16T16:32:23.271Z,147383.00
2022-10-16T16:34:50.352Z,147374.44
2022-10-16T16:37:17.930Z,147383.00
2022-10-16T16:39:45.032Z,147378.13
2022-10-16T16:42:12.050Z,147340.28
2022-10-16T16:44:39.190Z,147347.63
2022-10-16T16:47:06.902Z,147314.63
2022-10-16T16:49:34.214Z,147304.88
2022-10-16T16:52:01.339Z,147282.88
2022-10-16T16:54:28.485Z,147232.81
2022-10-16T16:56:55.598Z,147270.72
2022-10-16T16:59:22.891Z,147253.63
2022-10-16T17:01:55.598Z,147253.63
2022-10-16T17:04:23.695Z,147259.72
2022-10-16T17:06:50.715Z,147259.72
2022-10-16T17:09:17.732Z,147270.72
2022-10-16T17:11:45.570Z,147260.97
2022-10-16T17:14:13.230Z,147231.59
2022-10-16T17:16:44.570Z,147221.84
2022-10-16T17:19:15.030Z,147226.72
2022-10-16T17:21:43.160Z,147225.50
2022-10-16T17:24:11.039Z,147214.50
2022-10-16T17:26:38.402Z,147199.84
2022-10-16T17:29:05.560Z,147202.31
2022-10-16T17:31:36.161Z,147177.88
2022-10-16T17:34:05.900Z,147175.47
2022-10-16T17:36:35.027Z,147175.47
2022-10-16T17:39:06.307Z,147185.22
2022-10-16T17:41:34.611Z,147173.00
2022-10-16T17:44:03.121Z,147160.84
2022-10-16T17:46:30.414Z,147119.34
2022-10-16T17:48:57.396Z,147151.06
2022-10-16T17:51:30.401Z,147165.72
2022-10-16T17:53:59.431Z,147159.56
2022-10-16T17:56:28.231Z,147141.28
2022-10-16T17:58:57.356Z,147082.75
2022-10-16T18:01:30.141Z,147129.09
2022-10-16T18:03:59.429Z,147119.34
2022-10-16T18:06:27.763Z,147129.09
2022-10-16T18:08:56.842Z,147120.56
2022-10-16T18:11:24.309Z,147114.47
2022-10-16T18:13:55.734Z,147113.22
2022-10-16T18:16:23.836Z,147070.53
2022-10-16T18:18:50.918Z,147064.44
2022-10-16T18:21:20.102Z,147058.31
2022-10-16T18:23:52.024Z,147079.09
2022-10-16T18:26:20.643Z,147057.13
2022-10-16T18:28:48.164Z,146948.50
2022-10-16T18:31:17.636Z,147018.09
2022-10-16T18:33:50.108Z,146957.03
2022-10-16T18:36:23.073Z,146980.22
2022-10-16T18:38:50.419Z,146963.16
2022-10-16T18:41:18.072Z,146919.25
2022-10-16T18:43:45.168Z,146941.22
2022-10-16T18:46:15.287Z,146891.22
2022-10-16T18:48:43.087Z,146916.78
2022-10-16T18:51:14.970Z,146909.50
2022-10-16T18:53:44.673Z,146907.03
2022-10-16T18:56:14.941Z,146882.66
2022-10-16T18:58:44.228Z,146909.50
2022-10-16T19:01:16.468Z,146882.66
2022-10-16T19:03:44.046Z,146807.06
2022-10-16T19:06:13.669Z,146880.22
2022-10-16T19:08:41.826Z,146880.22
2022-10-16T19:11:16.118Z,146879.00
2022-10-16T19:13:44.451Z,146882.66
2022-10-16T19:16:21.727Z,146880.22
2022-10-16T19:18:50.574Z,146890.00
2022-10-16T19:21:18.644Z,146893.63
2022-10-16T19:23:46.097Z,146877.78
2022-10-16T19:26:17.939Z,146899.75
2022-10-16T19:28:45.678Z,146913.16
2022-10-16T19:31:15.616Z,146882.66
2022-10-16T19:33:43.358Z,146897.28
2022-10-16T19:36:25.006Z,146902.16
2022-10-16T19:38:58.317Z,146890.00
2022-10-16T19:41:26.475Z,146860.72
2022-10-16T19:43:54.214Z,146899.75
2022-10-16T19:46:25.776Z,146894.88
2022-10-16T19:49:04.360Z,146865.59
2022-10-16T19:51:31.711Z,146853.44
2022-10-16T19:54:04.440Z,146841.22
2022-10-16T19:56:32.387Z,146841.22
2022-10-16T19:59:00.306Z,146848.56
2022-10-16T20:01:30.238Z,146841.22
2022-10-16T20:03:57.717Z,146785.16
2022-10-16T20:06:25.577Z,146829.00
2022-10-16T20:08:54.856Z,146824.13
2022-10-16T20:11:25.370Z,146838.75
2022-10-16T20:13:52.829Z,146838.75
2022-10-16T20:16:20.949Z,146818.06
2022-10-16T20:18:50.416Z,146833.88
2022-10-16T20:21:20.269Z,146833.88
2022-10-16T20:23:48.889Z,146768.06
2022-10-16T20:26:17.364Z,146819.25
2022-10-16T20:28:44.617Z,146826.59
2022-10-16T20:31:17.687Z,146836.34
2022-10-16T20:33:45.320Z,146830.25
2022-10-16T20:36:14.032Z,146836.34
2022-10-16T20:38:42.085Z,146841.22
2022-10-16T20:41:11.042Z,146843.63
2022-10-16T20:46:19.951Z,146877.78
2022-10-16T20:48:47.805Z,146886.34
2022-10-16T20:51:23.849Z,146885.13
2022-10-16T20:53:56.790Z,146885.13
2022-10-16T20:56:24.999Z,146866.84
2022-10-16T20:58:52.577Z,146875.34
2022-10-16T21:01:23.470Z,146885.13
2022-10-16T21:03:58.435Z,146885.13
2022-10-16T21:06:25.930Z,146836.34
2022-10-16T21:08:52.936Z,146899.75
2022-10-16T21:14:02.071Z,146904.63
2022-10-16T21:16:29.294Z,146848.56
2022-10-16T21:18:57.415Z,146887.53
2022-10-16T21:21:44.758Z,146892.41
2022-10-16T21:24:15.011Z,146903.41
2022-10-16T21:26:44.490Z,146926.59
2022-10-16T21:29:11.492Z,146936.34
2022-10-16T21:31:39.051Z,146940.00
2022-10-16T21:34:06.130Z,146927.78
2022-10-16T21:36:36.017Z,146933.88
2022-10-16T21:39:08.596Z,146933.88
2022-10-16T21:41:36.270Z,146936.34
2022-10-16T21:44:03.692Z,146836.34
2022-10-16T21:46:33.736Z,146944.88
2022-10-16T21:49:03.541Z,146944.88
2022-10-16T21:51:33.865Z,146946.09
2022-10-16T21:54:02.094Z,146937.53
2022-10-16T21:56:29.784Z,146938.75
2022-10-16T21:58:57.259Z,146943.63
2022-10-16T22:01:25.970Z,146922.91
2022-10-16T22:03:53.789Z,146943.63
2022-10-16T22:06:23.264Z,146886.34
2022-10-16T22:08:51.762Z,146890.00
2022-10-16T22:11:25.281Z,146831.47
2022-10-16T22:13:56.407Z,146899.75
2022-10-16T22:16:26.569Z,146813.19
2022-10-16T22:18:55.988Z,146841.22
2022-10-16T22:21:23.991Z,146814.41
2022-10-16T22:23:51.449Z,146802.19
2022-10-16T22:26:18.540Z,146772.94
2022-10-16T22:28:45.708Z,146692.44
2022-10-16T22:31:14.328Z,146629.13
2022-10-16T22:33:42.193Z,146672.97
2022-10-16T22:36:12.178Z,146712.03
2022-10-16T22:38:39.343Z,146683.94
2022-10-16T22:41:12.779Z,146683.94
2022-10-16T22:43:43.786Z,146646.13
2022-10-16T22:46:13.872Z,146599.84
2022-10-16T22:48:41.544Z,146597.44
2022-10-16T22:51:09.602Z,146629.13
2022-10-16T22:53:36.579Z,146517.00
2022-10-16T22:56:03.917Z,146553.56
2022-10-16T22:58:30.925Z,146587.66
2022-10-16T23:03:30.172Z,146651.00
2022-10-16T23:05:57.154Z,146687.56
2022-10-16T23:08:25.110Z,146681.50
2022-10-16T23:10:52.074Z,146665.66
2022-10-16T23:13:19.061Z,146658.34
2022-10-16T23:15:46.165Z,146588.91
2022-10-16T23:18:13.210Z,146597.44
2022-10-16T23:20:40.995Z,146568.16
2022-10-16T23:23:09.165Z,146559.63
2022-10-16T23:25:36.864Z,146575.50
2022-10-16T23:28:04.374Z,146585.22
2022-10-16T23:30:31.460Z,146608.38
2022-10-16T23:32:58.449Z,146619.34
2022-10-16T23:35:25.443Z,146614.47
2022-10-16T23:37:52.570Z,146575.50
2022-10-16T23:40:19.631Z,146616.91
2022-10-16T23:42:46.655Z,146546.22
2022-10-16T23:45:13.711Z,146596.19
2022-10-16T23:47:41.502Z,146562.09
2022-10-16T23:50:09.911Z,146498.75
2022-10-16T23:52:36.908Z,146547.47
2022-10-16T23:55:04.884Z,146546.22
2022-10-16T23:57:32.026Z,146465.88
2022-10-16T23:59:59.023Z,146563.31
